sensor_id;sensor_type;location;lat;lon;timestamp;P1;durP1;ratioP1;P2;durP2;ratioP2
49502;SDS011;35409;48.776;9.204;2023-07-02T00:01:28;4.53;;;4.07;;
49502;SDS011;35409;48.776;9.204;2023-07-02T00:03:54;4.93;;;4.43;;
49502;SDS011;35409;48.776;9.204;2023-07-02T00:06:19;4.72;;;4.10;;
49502;SDS011;35409;48.776;9.204;2023-07-02T00:08:45;6.38;;;4.70;;
49502;SDS011;35409;48.776;9.204;2023-07-02T00:11:11;6.95;;;4.70;;
49502;SDS011;35409;48.776;9.204;2023-07-02T00:13:37;5.82;;;4.95;;
49502;SDS011;35409;48.776;9.204;2023-07-02T00:16:04;5.18;;;4.53;;
49502;SDS011;35409;48.776;9.204;2023-07-02T00:18:29;4.10;;;3.70;;
49502;SDS011;35409;48.776;9.204;2023-07-02T00:20:59;4.70;;;4.00;;
49502;SDS011;35409;48.776;9.204;2023-07-02T00:23:27;4.18;;;3.78;;
49502;SDS011;35409;48.776;9.204;2023-07-02T00:25:53;4.10;;;3.67;;
49502;SDS011;35409;48.776;9.204;2023-07-02T00:28:19;4.57;;;4.18;;
49502;SDS011;35409;48.776;9.204;2023-07-02T00:30:44;6.28;;;4.65;;
49502;SDS011;35409;48.776;9.204;2023-07-02T00:33:10;5.47;;;4.03;;
49502;SDS011;35409;48.776;9.204;2023-07-02T00:35:35;5.78;;;4.60;;
49502;SDS011;35409;48.776;9.204;2023-07-02T00:38:02;4.72;;;4.32;;
49502;SDS011;35409;48.776;9.204;2023-07-02T00:40:28;5.72;;;4.28;;
49502;SDS011;35409;48.776;9.204;2023-07-02T00:42:53;5.20;;;4.72;;
49502;SDS011;35409;48.776;9.204;2023-07-02T00:45:19;6.18;;;3.90;;
49502;SDS011;35409;48.776;9.204;2023-07-02T00:47:44;4.10;;;3.65;;
49502;SDS011;35409;48.776;9.204;2023-07-02T00:50:10;6.22;;;4.65;;
49502;SDS011;35409;48.776;9.204;2023-07-02T00:52:37;4.32;;;3.83;;
49502;SDS011;35409;48.776;9.204;2023-07-02T00:55:03;4.30;;;3.83;;
49502;SDS011;35409;48.776;9.204;2023-07-02T00:57:29;4.53;;;3.50;;
49502;SDS011;35409;48.776;9.204;2023-07-02T00:59:56;4.22;;;3.80;;
49502;SDS011;35409;48.776;9.204;2023-07-02T01:02:22;3.90;;;3.00;;
49502;SDS011;35409;48.776;9.204;2023-07-02T01:04:50;5.47;;;3.30;;
49502;SDS011;35409;48.776;9.204;2023-07-02T01:07:22;7.88;;;4.05;;
49502;SDS011;35409;48.776;9.204;2023-07-02T01:09:49;4.07;;;3.67;;
49502;SDS011;35409;48.776;9.204;2023-07-02T01:12:16;5.38;;;3.63;;
49502;SDS011;35409;48.776;9.204;2023-07-02T01:14:44;4.60;;;3.70;;
49502;SDS011;35409;48.776;9.204;2023-07-02T01:17:13;4.63;;;3.75;;
49502;SDS011;35409;48.776;9.204;2023-07-02T01:22:21;4.43;;;3.22;;
49502;SDS011;35409;48.776;9.204;2023-07-02T01:24:48;4.05;;;3.22;;
49502;SDS011;35409;48.776;9.204;2023-07-02T01:27:15;5.93;;;3.38;;
49502;SDS011;35409;48.776;9.204;2023-07-02T01:29:42;5.03;;;3.55;;
49502;SDS011;35409;48.776;9.204;2023-07-02T01:32:15;4.72;;;3.55;;
49502;SDS011;35409;48.776;9.204;2023-07-02T01:34:42;7.70;;;4.07;;
49502;SDS011;35409;48.776;9.204;2023-07-02T01:37:13;3.83;;;3.50;;
49502;SDS011;35409;48.776;9.204;2023-07-02T01:39:41;3.78;;;3.40;;
49502;SDS011;35409;48.776;9.204;2023-07-02T01:42:09;5.13;;;3.30;;
49502;SDS011;35409;48.776;9.204;2023-07-02T01:44:36;5.53;;;3.20;;
49502;SDS011;35409;48.776;9.204;2023-07-02T01:47:04;3.97;;;2.90;;
49502;SDS011;35409;48.776;9.204;2023-07-02T01:49:31;4.78;;;3.60;;
49502;SDS011;35409;48.776;9.204;2023-07-02T01:51:58;4.07;;;3.63;;
49502;SDS011;35409;48.776;9.204;2023-07-02T01:54:26;6.10;;;3.15;;
49502;SDS011;35409;48.776;9.204;2023-07-02T01:56:53;3.25;;;2.92;;
49502;SDS011;35409;48.776;9.204;2023-07-02T01:59:20;4.05;;;2.92;;
49502;SDS011;35409;48.776;9.204;2023-07-02T02:01:47;3.70;;;3.22;;
49502;SDS011;35409;48.776;9.204;2023-07-02T02:04:14;4.53;;;3.45;;
49502;SDS011;35409;48.776;9.204;2023-07-02T02:06:41;5.82;;;3.38;;
49502;SDS011;35409;48.776;9.204;2023-07-02T02:09:08;4.32;;;3.42;;
49502;SDS011;35409;48.776;9.204;2023-07-02T02:11:41;4.00;;;3.20;;
49502;SDS011;35409;48.776;9.204;2023-07-02T02:14:08;5.30;;;3.28;;
49502;SDS011;35409;48.776;9.204;2023-07-02T02:16:34;4.47;;;3.30;;
49502;SDS011;35409;48.776;9.204;2023-07-02T02:19:00;4.55;;;3.50;;
49502;SDS011;35409;48.776;9.204;2023-07-02T02:21:27;4.45;;;3.10;;
49502;SDS011;35409;48.776;9.204;2023-07-02T02:23:53;4.45;;;3.60;;
49502;SDS011;35409;48.776;9.204;2023-07-02T02:26:20;6.65;;;3.35;;
49502;SDS011;35409;48.776;9.204;2023-07-02T02:28:46;3.60;;;2.72;;
49502;SDS011;35409;48.776;9.204;2023-07-02T02:31:13;4.00;;;3.00;;
49502;SDS011;35409;48.776;9.204;2023-07-02T02:33:39;3.55;;;3.10;;
49502;SDS011;35409;48.776;9.204;2023-07-02T02:36:05;4.07;;;3.30;;
49502;SDS011;35409;48.776;9.204;2023-07-02T02:38:32;3.13;;;2.83;;
49502;SDS011;35409;48.776;9.204;2023-07-02T02:40:59;4.53;;;2.90;;
49502;SDS011;35409;48.776;9.204;2023-07-02T02:43:27;3.53;;;3.05;;
49502;SDS011;35409;48.776;9.204;2023-07-02T02:45:54;3.80;;;3.00;;
49502;SDS011;35409;48.776;9.204;2023-07-02T02:48:22;4.45;;;3.17;;
49502;SDS011;35409;48.776;9.204;2023-07-02T02:50:48;4.85;;;3.10;;
49502;SDS011;35409;48.776;9.204;2023-07-02T02:53:16;3.38;;;3.08;;
49502;SDS011;35409;48.776;9.204;2023-07-02T02:55:43;4.28;;;3.50;;
49502;SDS011;35409;48.776;9.204;2023-07-02T02:58:10;4.38;;;2.90;;
49502;SDS011;35409;48.776;9.204;2023-07-02T03:00:37;6.90;;;3.25;;
49502;SDS011;35409;48.776;9.204;2023-07-02T03:05:34;5.80;;;2.80;;
49502;SDS011;35409;48.776;9.204;2023-07-02T03:08:01;5.32;;;3.22;;
49502;SDS011;35409;48.776;9.204;2023-07-02T03:10:28;3.08;;;2.83;;
49502;SDS011;35409;48.776;9.204;2023-07-02T03:12:55;4.53;;;3.10;;
49502;SDS011;35409;48.776;9.204;2023-07-02T03:15:22;3.60;;;2.97;;
49502;SDS011;35409;48.776;9.204;2023-07-02T03:17:49;6.25;;;2.72;;
49502;SDS011;35409;48.776;9.204;2023-07-02T03:20:16;4.60;;;2.50;;
49502;SDS011;35409;48.776;9.204;2023-07-02T03:22:43;4.30;;;2.85;;
49502;SDS011;35409;48.776;9.204;2023-07-02T03:25:10;7.97;;;3.20;;
49502;SDS011;35409;48.776;9.204;2023-07-02T03:27:37;9.93;;;3.20;;
49502;SDS011;35409;48.776;9.204;2023-07-02T03:30:04;5.13;;;3.25;;
49502;SDS011;35409;48.776;9.204;2023-07-02T03:32:31;4.35;;;3.05;;
49502;SDS011;35409;48.776;9.204;2023-07-02T03:34:58;6.15;;;3.50;;
49502;SDS011;35409;48.776;9.204;2023-07-02T03:37:26;6.55;;;3.63;;
49502;SDS011;35409;48.776;9.204;2023-07-02T03:39:53;6.43;;;3.80;;
49502;SDS011;35409;48.776;9.204;2023-07-02T03:42:20;9.45;;;3.83;;
49502;SDS011;35409;48.776;9.204;2023-07-02T03:44:47;6.15;;;3.95;;
49502;SDS011;35409;48.776;9.204;2023-07-02T03:47:16;4.75;;;4.03;;
49502;SDS011;35409;48.776;9.204;2023-07-02T03:49:44;6.13;;;4.03;;
49502;SDS011;35409;48.776;9.204;2023-07-02T03:52:14;6.80;;;3.85;;
49502;SDS011;35409;48.776;9.204;2023-07-02T03:54:39;5.07;;;4.00;;
49502;SDS011;35409;48.776;9.204;2023-07-02T03:57:05;6.75;;;4.00;;
49502;SDS011;35409;48.776;9.204;2023-07-02T03:59:31;6.53;;;4.28;;
49502;SDS011;35409;48.776;9.204;2023-07-02T04:01:56;8.32;;;4.40;;
49502;SDS011;35409;48.776;9.204;2023-07-02T04:04:22;8.30;;;4.45;;
49502;SDS011;35409;48.776;9.204;2023-07-02T04:06:47;13.05;;;4.72;;
49502;SDS011;35409;48.776;9.204;2023-07-02T04:09:13;8.43;;;4.63;;
49502;SDS011;35409;48.776;9.204;2023-07-02T04:11:38;9.68;;;4.43;;
49502;SDS011;35409;48.776;9.204;2023-07-02T04:14:04;8.52;;;4.40;;
49502;SDS011;35409;48.776;9.204;2023-07-02T04:16:29;8.68;;;4.28;;
49502;SDS011;35409;48.776;9.204;2023-07-02T04:18:55;13.15;;;5.55;;
49502;SDS011;35409;48.776;9.204;2023-07-02T04:21:20;8.93;;;4.88;;
49502;SDS011;35409;48.776;9.204;2023-07-02T04:23:46;7.70;;;4.95;;
49502;SDS011;35409;48.776;9.204;2023-07-02T04:26:12;12.13;;;6.00;;
49502;SDS011;35409;48.776;9.204;2023-07-02T04:28:37;8.45;;;5.63;;
49502;SDS011;35409;48.776;9.204;2023-07-02T04:31:03;10.30;;;6.18;;
49502;SDS011;35409;48.776;9.204;2023-07-02T04:33:28;8.48;;;5.15;;
49502;SDS011;35409;48.776;9.204;2023-07-02T04:36:00;7.07;;;4.75;;
49502;SDS011;35409;48.776;9.204;2023-07-02T04:38:27;7.03;;;4.60;;
49502;SDS011;35409;48.776;9.204;2023-07-02T04:40:53;10.50;;;5.88;;
49502;SDS011;35409;48.776;9.204;2023-07-02T04:43:19;8.50;;;5.15;;
49502;SDS011;35409;48.776;9.204;2023-07-02T04:45:44;8.38;;;5.20;;
49502;SDS011;35409;48.776;9.204;2023-07-02T04:48:10;8.40;;;5.47;;
49502;SDS011;35409;48.776;9.204;2023-07-02T04:50:35;14.00;;;5.35;;
49502;SDS011;35409;48.776;9.204;2023-07-02T04:53:01;6.22;;;4.65;;
49502;SDS011;35409;48.776;9.204;2023-07-02T04:55:27;8.02;;;5.32;;
49502;SDS011;35409;48.776;9.204;2023-07-02T04:57:52;11.75;;;5.20;;
49502;SDS011;35409;48.776;9.204;2023-07-02T05:00:18;10.90;;;5.28;;
49502;SDS011;35409;48.776;9.204;2023-07-02T05:02:44;10.85;;;5.40;;
49502;SDS011;35409;48.776;9.204;2023-07-02T05:05:09;9.05;;;4.72;;
49502;SDS011;35409;48.776;9.204;2023-07-02T05:07:35;11.23;;;5.30;;
49502;SDS011;35409;48.776;9.204;2023-07-02T05:10:00;8.40;;;4.78;;
49502;SDS011;35409;48.776;9.204;2023-07-02T05:12:26;9.50;;;4.50;;
49502;SDS011;35409;48.776;9.204;2023-07-02T05:14:52;7.82;;;4.88;;
49502;SDS011;35409;48.776;9.204;2023-07-02T05:17:17;7.97;;;3.90;;
49502;SDS011;35409;48.776;9.204;2023-07-02T05:19:43;7.28;;;4.18;;
49502;SDS011;35409;48.776;9.204;2023-07-02T05:22:09;6.85;;;3.63;;
49502;SDS011;35409;48.776;9.204;2023-07-02T05:24:35;9.07;;;4.40;;
49502;SDS011;35409;48.776;9.204;2023-07-02T05:27:01;8.43;;;4.20;;
49502;SDS011;35409;48.776;9.204;2023-07-02T05:29:26;7.43;;;4.72;;
49502;SDS011;35409;48.776;9.204;2023-07-02T05:31:52;9.30;;;4.93;;
49502;SDS011;35409;48.776;9.204;2023-07-02T05:34:17;5.57;;;4.45;;
49502;SDS011;35409;48.776;9.204;2023-07-02T05:36:43;6.82;;;4.60;;
49502;SDS011;35409;48.776;9.204;2023-07-02T05:39:09;7.18;;;4.07;;
49502;SDS011;35409;48.776;9.204;2023-07-02T05:41:34;11.30;;;5.00;;
49502;SDS011;35409;48.776;9.204;2023-07-02T05:44:00;9.93;;;4.90;;
49502;SDS011;35409;48.776;9.204;2023-07-02T05:46:26;8.85;;;5.03;;
49502;SDS011;35409;48.776;9.204;2023-07-02T05:48:51;12.50;;;5.03;;
49502;SDS011;35409;48.776;9.204;2023-07-02T05:51:20;11.85;;;4.93;;
49502;SDS011;35409;48.776;9.204;2023-07-02T05:53:46;9.87;;;4.93;;
49502;SDS011;35409;48.776;9.204;2023-07-02T05:56:12;10.27;;;5.45;;
49502;SDS011;35409;48.776;9.204;2023-07-02T05:58:38;12.90;;;5.78;;
49502;SDS011;35409;48.776;9.204;2023-07-02T06:01:04;13.50;;;5.75;;
49502;SDS011;35409;48.776;9.204;2023-07-02T06:03:30;10.90;;;5.40;;
49502;SDS011;35409;48.776;9.204;2023-07-02T06:05:56;9.85;;;5.43;;
49502;SDS011;35409;48.776;9.204;2023-07-02T06:08:22;10.80;;;5.60;;
49502;SDS011;35409;48.776;9.204;2023-07-02T06:10:47;9.93;;;5.20;;
49502;SDS011;35409;48.776;9.204;2023-07-02T06:13:13;11.55;;;6.35;;
49502;SDS011;35409;48.776;9.204;2023-07-02T06:15:39;14.23;;;6.50;;
49502;SDS011;35409;48.776;9.204;2023-07-02T06:18:05;12.80;;;5.88;;
49502;SDS011;35409;48.776;9.204;2023-07-02T06:20:31;17.13;;;7.82;;
49502;SDS011;35409;48.776;9.204;2023-07-02T06:22:56;10.98;;;6.18;;
49502;SDS011;35409;48.776;9.204;2023-07-02T06:25:22;12.15;;;6.78;;
49502;SDS011;35409;48.776;9.204;2023-07-02T06:27:48;11.65;;;6.80;;
49502;SDS011;35409;48.776;9.204;2023-07-02T06:30:14;14.95;;;7.70;;
49502;SDS011;35409;48.776;9.204;2023-07-02T06:32:39;15.27;;;8.02;;
49502;SDS011;35409;48.776;9.204;2023-07-02T06:35:05;18.88;;;8.65;;
49502;SDS011;35409;48.776;9.204;2023-07-02T06:37:31;17.23;;;8.88;;
49502;SDS011;35409;48.776;9.204;2023-07-02T06:39:57;17.50;;;9.48;;
49502;SDS011;35409;48.776;9.204;2023-07-02T06:42:23;21.70;;;10.90;;
49502;SDS011;35409;48.776;9.204;2023-07-02T06:44:49;18.40;;;9.93;;
49502;SDS011;35409;48.776;9.204;2023-07-02T06:47:15;19.60;;;10.27;;
49502;SDS011;35409;48.776;9.204;2023-07-02T06:49:41;22.77;;;10.23;;
49502;SDS011;35409;48.776;9.204;2023-07-02T06:52:06;19.17;;;10.02;;
49502;SDS011;35409;48.776;9.204;2023-07-02T06:54:32;17.35;;;9.32;;
49502;SDS011;35409;48.776;9.204;2023-07-02T06:56:57;17.48;;;10.65;;
49502;SDS011;35409;48.776;9.204;2023-07-02T06:59:23;20.88;;;10.15;;
49502;SDS011;35409;48.776;9.204;2023-07-02T07:01:49;19.10;;;10.20;;
49502;SDS011;35409;48.776;9.204;2023-07-02T07:04:15;23.48;;;10.57;;
49502;SDS011;35409;48.776;9.204;2023-07-02T07:06:41;20.55;;;10.43;;
49502;SDS011;35409;48.776;9.204;2023-07-02T07:09:07;21.40;;;9.90;;
49502;SDS011;35409;48.776;9.204;2023-07-02T07:11:33;20.92;;;10.68;;
49502;SDS011;35409;48.776;9.204;2023-07-02T07:13:59;21.20;;;10.65;;
49502;SDS011;35409;48.776;9.204;2023-07-02T07:16:25;18.83;;;10.07;;
49502;SDS011;35409;48.776;9.204;2023-07-02T07:18:50;20.30;;;10.55;;
49502;SDS011;35409;48.776;9.204;2023-07-02T07:21:16;22.23;;;10.60;;
49502;SDS011;35409;48.776;9.204;2023-07-02T07:23:41;18.55;;;11.32;;
49502;SDS011;35409;48.776;9.204;2023-07-02T07:26:07;24.27;;;12.45;;
49502;SDS011;35409;48.776;9.204;2023-07-02T07:28:33;20.40;;;11.80;;
49502;SDS011;35409;48.776;9.204;2023-07-02T07:30:58;21.05;;;11.70;;
49502;SDS011;35409;48.776;9.204;2023-07-02T07:33:24;20.90;;;12.20;;
49502;SDS011;35409;48.776;9.204;2023-07-02T07:35:49;22.70;;;13.70;;
49502;SDS011;35409;48.776;9.204;2023-07-02T07:38:15;26.58;;;13.27;;
49502;SDS011;35409;48.776;9.204;2023-07-02T07:40:44;26.17;;;15.07;;
49502;SDS011;35409;48.776;9.204;2023-07-02T07:43:10;21.80;;;12.98;;
49502;SDS011;35409;48.776;9.204;2023-07-02T07:45:35;26.42;;;13.70;;
49502;SDS011;35409;48.776;9.204;2023-07-02T07:48:01;29.70;;;14.48;;
49502;SDS011;35409;48.776;9.204;2023-07-02T07:50:27;22.90;;;13.93;;
49502;SDS011;35409;48.776;9.204;2023-07-02T07:52:53;27.27;;;15.45;;
49502;SDS011;35409;48.776;9.204;2023-07-02T07:55:18;29.13;;;14.63;;
49502;SDS011;35409;48.776;9.204;2023-07-02T07:57:44;22.35;;;13.50;;
49502;SDS011;35409;48.776;9.204;2023-07-02T08:00:10;26.60;;;15.02;;
49502;SDS011;35409;48.776;9.204;2023-07-02T08:02:36;24.65;;;14.25;;
49502;SDS011;35409;48.776;9.204;2023-07-02T08:05:01;24.65;;;14.75;;
49502;SDS011;35409;48.776;9.204;2023-07-02T08:07:28;23.88;;;14.63;;
49502;SDS011;35409;48.776;9.204;2023-07-02T08:09:53;28.08;;;14.38;;
49502;SDS011;35409;48.776;9.204;2023-07-02T08:12:19;23.35;;;14.13;;
49502;SDS011;35409;48.776;9.204;2023-07-02T08:14:44;27.13;;;14.13;;
49502;SDS011;35409;48.776;9.204;2023-07-02T08:17:10;24.38;;;14.80;;
49502;SDS011;35409;48.776;9.204;2023-07-02T08:19:35;24.88;;;14.68;;
49502;SDS011;35409;48.776;9.204;2023-07-02T08:22:01;26.42;;;15.20;;
49502;SDS011;35409;48.776;9.204;2023-07-02T08:24:28;26.83;;;14.55;;
49502;SDS011;35409;48.776;9.204;2023-07-02T08:26:55;27.17;;;15.82;;
49502;SDS011;35409;48.776;9.204;2023-07-02T08:29:21;26.67;;;14.35;;
49502;SDS011;35409;48.776;9.204;2023-07-02T08:31:47;27.20;;;14.50;;
49502;SDS011;35409;48.776;9.204;2023-07-02T08:34:12;24.20;;;14.52;;
49502;SDS011;35409;48.776;9.204;2023-07-02T08:36:38;25.65;;;13.98;;
49502;SDS011;35409;48.776;9.204;2023-07-02T08:39:03;27.15;;;14.23;;
49502;SDS011;35409;48.776;9.204;2023-07-02T08:41:29;23.27;;;13.80;;
49502;SDS011;35409;48.776;9.204;2023-07-02T08:43:56;31.08;;;14.35;;
49502;SDS011;35409;48.776;9.204;2023-07-02T08:46:24;30.33;;;14.35;;
49502;SDS011;35409;48.776;9.204;2023-07-02T08:48:50;24.42;;;14.02;;
49502;SDS011;35409;48.776;9.204;2023-07-02T08:51:15;22.45;;;13.90;;
49502;SDS011;35409;48.776;9.204;2023-07-02T08:53:41;29.80;;;14.80;;
49502;SDS011;35409;48.776;9.204;2023-07-02T08:56:07;26.85;;;14.23;;
49502;SDS011;35409;48.776;9.204;2023-07-02T08:58:32;25.40;;;13.18;;
49502;SDS011;35409;48.776;9.204;2023-07-02T09:01:08;20.13;;;12.70;;
49502;SDS011;35409;48.776;9.204;2023-07-02T09:03:35;26.58;;;13.07;;
49502;SDS011;35409;48.776;9.204;2023-07-02T09:06:04;23.23;;;13.18;;
49502;SDS011;35409;48.776;9.204;2023-07-02T09:08:30;19.70;;;13.00;;
49502;SDS011;35409;48.776;9.204;2023-07-02T09:11:05;19.65;;;11.73;;
49502;SDS011;35409;48.776;9.204;2023-07-02T09:13:41;22.98;;;12.15;;
49502;SDS011;35409;48.776;9.204;2023-07-02T09:16:07;19.38;;;12.05;;
49502;SDS011;35409;48.776;9.204;2023-07-02T09:18:32;20.00;;;12.13;;
49502;SDS011;35409;48.776;9.204;2023-07-02T09:20:58;19.33;;;12.60;;
49502;SDS011;35409;48.776;9.204;2023-07-02T09:23:31;25.58;;;12.60;;
49502;SDS011;35409;48.776;9.204;2023-07-02T09:26:00;18.40;;;11.85;;
49502;SDS011;35409;48.776;9.204;2023-07-02T09:28:26;18.80;;;11.82;;
49502;SDS011;35409;48.776;9.204;2023-07-02T09:30:57;20.80;;;12.07;;
49502;SDS011;35409;48.776;9.204;2023-07-02T09:33:24;21.27;;;12.05;;
49502;SDS011;35409;48.776;9.204;2023-07-02T09:35:50;25.58;;;12.57;;
49502;SDS011;35409;48.776;9.204;2023-07-02T09:38:17;22.85;;;12.43;;
49502;SDS011;35409;48.776;9.204;2023-07-02T09:40:47;21.38;;;12.70;;
49502;SDS011;35409;48.776;9.204;2023-07-02T09:43:15;24.33;;;11.75;;
49502;SDS011;35409;48.776;9.204;2023-07-02T09:45:45;21.13;;;13.18;;
49502;SDS011;35409;48.776;9.204;2023-07-02T09:48:16;23.05;;;13.38;;
49502;SDS011;35409;48.776;9.204;2023-07-02T09:50:45;22.38;;;11.98;;
49502;SDS011;35409;48.776;9.204;2023-07-02T09:53:13;23.33;;;11.68;;
49502;SDS011;35409;48.776;9.204;2023-07-02T09:55:39;21.17;;;12.00;;
49502;SDS011;35409;48.776;9.204;2023-07-02T09:58:06;24.15;;;12.48;;
49502;SDS011;35409;48.776;9.204;2023-07-02T10:00:32;22.02;;;13.15;;
49502;SDS011;35409;48.776;9.204;2023-07-02T10:02:58;20.65;;;12.38;;
49502;SDS011;35409;48.776;9.204;2023-07-02T10:05:31;21.95;;;13.07;;
49502;SDS011;35409;48.776;9.204;2023-07-02T10:07:59;22.35;;;13.13;;
49502;SDS011;35409;48.776;9.204;2023-07-02T10:10:42;17.80;;;12.50;;
49502;SDS011;35409;48.776;9.204;2023-07-02T10:13:11;22.55;;;13.38;;
49502;SDS011;35409;48.776;9.204;2023-07-02T10:15:37;17.88;;;12.32;;
49502;SDS011;35409;48.776;9.204;2023-07-02T10:18:04;20.25;;;13.30;;
49502;SDS011;35409;48.776;9.204;2023-07-02T10:23:02;24.13;;;13.75;;
49502;SDS011;35409;48.776;9.204;2023-07-02T10:25:32;19.27;;;12.30;;
49502;SDS011;35409;48.776;9.204;2023-07-02T10:28:00;22.35;;;14.05;;
49502;SDS011;35409;48.776;9.204;2023-07-02T10:30:30;21.50;;;14.07;;
49502;SDS011;35409;48.776;9.204;2023-07-02T10:33:06;22.23;;;13.98;;
49502;SDS011;35409;48.776;9.204;2023-07-02T10:35:42;19.98;;;12.88;;
49502;SDS011;35409;48.776;9.204;2023-07-02T10:40:43;21.35;;;13.68;;
49502;SDS011;35409;48.776;9.204;2023-07-02T10:43:09;18.73;;;12.73;;
49502;SDS011;35409;48.776;9.204;2023-07-02T10:45:35;23.90;;;13.75;;
49502;SDS011;35409;48.776;9.204;2023-07-02T10:48:02;18.38;;;13.68;;
49502;SDS011;35409;48.776;9.204;2023-07-02T10:50:29;24.75;;;14.32;;
49502;SDS011;35409;48.776;9.204;2023-07-02T10:52:56;23.95;;;15.00;;
49502;SDS011;35409;48.776;9.204;2023-07-02T10:55:22;25.20;;;15.00;;
49502;SDS011;35409;48.776;9.204;2023-07-02T10:57:50;21.80;;;13.68;;
49502;SDS011;35409;48.776;9.204;2023-07-02T11:00:27;21.75;;;13.95;;
49502;SDS011;35409;48.776;9.204;2023-07-02T11:02:52;19.95;;;14.38;;
49502;SDS011;35409;48.776;9.204;2023-07-02T11:05:18;20.17;;;14.38;;
49502;SDS011;35409;48.776;9.204;2023-07-02T11:07:44;18.73;;;12.95;;
49502;SDS011;35409;48.776;9.204;2023-07-02T11:10:10;18.67;;;13.23;;
49502;SDS011;35409;48.776;9.204;2023-07-02T11:12:43;23.05;;;14.32;;
49502;SDS011;35409;48.776;9.204;2023-07-02T11:15:10;20.25;;;13.38;;
49502;SDS011;35409;48.776;9.204;2023-07-02T11:17:37;21.50;;;14.15;;
49502;SDS011;35409;48.776;9.204;2023-07-02T11:20:06;24.80;;;14.98;;
49502;SDS011;35409;48.776;9.204;2023-07-02T11:22:33;21.70;;;15.13;;
49502;SDS011;35409;48.776;9.204;2023-07-02T11:25:16;21.70;;;15.05;;
49502;SDS011;35409;48.776;9.204;2023-07-02T11:27:43;25.25;;;14.82;;
49502;SDS011;35409;48.776;9.204;2023-07-02T11:30:09;21.50;;;14.27;;
49502;SDS011;35409;48.776;9.204;2023-07-02T11:32:52;25.23;;;15.45;;
49502;SDS011;35409;48.776;9.204;2023-07-02T11:35:18;21.52;;;14.32;;
49502;SDS011;35409;48.776;9.204;2023-07-02T11:37:45;19.63;;;13.68;;
49502;SDS011;35409;48.776;9.204;2023-07-02T11:40:11;21.58;;;13.85;;
49502;SDS011;35409;48.776;9.204;2023-07-02T11:42:38;19.65;;;14.02;;
49502;SDS011;35409;48.776;9.204;2023-07-02T11:45:05;21.67;;;13.77;;
49502;SDS011;35409;48.776;9.204;2023-07-02T11:47:31;21.27;;;13.93;;
49502;SDS011;35409;48.776;9.204;2023-07-02T11:49:56;20.95;;;14.07;;
49502;SDS011;35409;48.776;9.204;2023-07-02T11:52:24;21.35;;;14.40;;
49502;SDS011;35409;48.776;9.204;2023-07-02T11:54:50;19.33;;;13.60;;
49502;SDS011;35409;48.776;9.204;2023-07-02T11:57:15;18.88;;;13.48;;
49502;SDS011;35409;48.776;9.204;2023-07-02T11:59:41;18.20;;;13.85;;
49502;SDS011;35409;48.776;9.204;2023-07-02T12:02:07;21.48;;;13.68;;
49502;SDS011;35409;48.776;9.204;2023-07-02T12:04:32;22.02;;;14.40;;
49502;SDS011;35409;48.776;9.204;2023-07-02T12:06:59;19.70;;;13.18;;
49502;SDS011;35409;48.776;9.204;2023-07-02T12:09:26;22.05;;;13.98;;
49502;SDS011;35409;48.776;9.204;2023-07-02T12:11:52;23.75;;;14.88;;
49502;SDS011;35409;48.776;9.204;2023-07-02T12:14:18;21.60;;;14.25;;
49502;SDS011;35409;48.776;9.204;2023-07-02T12:16:43;21.77;;;13.52;;
49502;SDS011;35409;48.776;9.204;2023-07-02T12:19:09;21.17;;;14.60;;
49502;SDS011;35409;48.776;9.204;2023-07-02T12:21:35;20.13;;;13.68;;
49502;SDS011;35409;48.776;9.204;2023-07-02T12:24:00;22.45;;;13.57;;
49502;SDS011;35409;48.776;9.204;2023-07-02T12:26:27;19.83;;;13.75;;
49502;SDS011;35409;48.776;9.204;2023-07-02T12:28:53;23.10;;;14.23;;
49502;SDS011;35409;48.776;9.204;2023-07-02T12:31:19;22.92;;;14.38;;
49502;SDS011;35409;48.776;9.204;2023-07-02T12:33:45;19.80;;;14.40;;
49502;SDS011;35409;48.776;9.204;2023-07-02T12:36:11;21.15;;;14.27;;
49502;SDS011;35409;48.776;9.204;2023-07-02T12:38:37;21.85;;;14.68;;
49502;SDS011;35409;48.776;9.204;2023-07-02T12:41:03;18.35;;;13.63;;
49502;SDS011;35409;48.776;9.204;2023-07-02T12:43:28;19.15;;;14.77;;
49502;SDS011;35409;48.776;9.204;2023-07-02T12:45:54;22.33;;;14.80;;
49502;SDS011;35409;48.776;9.204;2023-07-02T12:48:20;19.60;;;14.32;;
49502;SDS011;35409;48.776;9.204;2023-07-02T12:50:55;19.63;;;14.88;;
49502;SDS011;35409;48.776;9.204;2023-07-02T12:53:22;23.45;;;15.18;;
49502;SDS011;35409;48.776;9.204;2023-07-02T12:55:49;25.13;;;15.63;;
49502;SDS011;35409;48.776;9.204;2023-07-02T12:58:14;19.55;;;14.25;;
49502;SDS011;35409;48.776;9.204;2023-07-02T13:00:40;21.08;;;13.95;;
49502;SDS011;35409;48.776;9.204;2023-07-02T13:03:12;22.63;;;14.43;;
49502;SDS011;35409;48.776;9.204;2023-07-02T13:05:38;19.92;;;13.82;;
49502;SDS011;35409;48.776;9.204;2023-07-02T13:08:04;21.83;;;13.55;;
49502;SDS011;35409;48.776;9.204;2023-07-02T13:10:31;20.15;;;14.70;;
49502;SDS011;35409;48.776;9.204;2023-07-02T13:12:58;22.85;;;13.93;;
49502;SDS011;35409;48.776;9.204;2023-07-02T13:15:24;18.83;;;13.43;;
49502;SDS011;35409;48.776;9.204;2023-07-02T13:17:50;21.30;;;14.20;;
49502;SDS011;35409;48.776;9.204;2023-07-02T13:20:16;22.75;;;14.77;;
49502;SDS011;35409;48.776;9.204;2023-07-02T13:22:41;18.15;;;13.73;;
49502;SDS011;35409;48.776;9.204;2023-07-02T13:25:07;20.70;;;13.77;;
49502;SDS011;35409;48.776;9.204;2023-07-02T13:27:33;21.77;;;14.52;;
49502;SDS011;35409;48.776;9.204;2023-07-02T13:29:59;18.38;;;13.98;;
49502;SDS011;35409;48.776;9.204;2023-07-02T13:32:25;22.52;;;13.60;;
49502;SDS011;35409;48.776;9.204;2023-07-02T13:34:50;20.55;;;14.10;;
49502;SDS011;35409;48.776;9.204;2023-07-02T13:37:16;20.20;;;13.70;;
49502;SDS011;35409;48.776;9.204;2023-07-02T13:39:48;21.15;;;14.63;;
49502;SDS011;35409;48.776;9.204;2023-07-02T13:42:14;19.13;;;13.95;;
49502;SDS011;35409;48.776;9.204;2023-07-02T13:44:40;20.42;;;13.88;;
49502;SDS011;35409;48.776;9.204;2023-07-02T13:47:06;21.60;;;14.30;;
49502;SDS011;35409;48.776;9.204;2023-07-02T13:49:32;20.85;;;14.75;;
49502;SDS011;35409;48.776;9.204;2023-07-02T13:51:58;21.85;;;13.57;;
49502;SDS011;35409;48.776;9.204;2023-07-02T13:54:24;21.15;;;14.07;;
49502;SDS011;35409;48.776;9.204;2023-07-02T13:56:51;19.90;;;13.65;;
49502;SDS011;35409;48.776;9.204;2023-07-02T13:59:18;20.77;;;14.98;;
49502;SDS011;35409;48.776;9.204;2023-07-02T14:01:44;22.55;;;14.13;;
49502;SDS011;35409;48.776;9.204;2023-07-02T14:04:11;18.20;;;13.55;;
49502;SDS011;35409;48.776;9.204;2023-07-02T14:06:38;21.98;;;14.65;;
49502;SDS011;35409;48.776;9.204;2023-07-02T14:09:04;21.85;;;14.07;;
49502;SDS011;35409;48.776;9.204;2023-07-02T14:11:31;19.48;;;14.43;;
49502;SDS011;35409;48.776;9.204;2023-07-02T14:13:58;20.88;;;14.18;;
49502;SDS011;35409;48.776;9.204;2023-07-02T14:16:23;21.08;;;14.45;;
49502;SDS011;35409;48.776;9.204;2023-07-02T14:18:49;20.88;;;13.88;;
49502;SDS011;35409;48.776;9.204;2023-07-02T14:21:15;21.00;;;14.15;;
49502;SDS011;35409;48.776;9.204;2023-07-02T14:23:41;18.88;;;13.77;;
49502;SDS011;35409;48.776;9.204;2023-07-02T14:26:08;20.58;;;14.95;;
49502;SDS011;35409;48.776;9.204;2023-07-02T14:28:33;20.60;;;13.85;;
49502;SDS011;35409;48.776;9.204;2023-07-02T14:31:00;19.70;;;14.63;;
49502;SDS011;35409;48.776;9.204;2023-07-02T14:33:27;18.83;;;14.10;;
49502;SDS011;35409;48.776;9.204;2023-07-02T14:35:55;19.30;;;13.70;;
49502;SDS011;35409;48.776;9.204;2023-07-02T14:38:20;20.40;;;14.13;;
49502;SDS011;35409;48.776;9.204;2023-07-02T14:40:49;19.00;;;14.30;;